createdAt,value
2023-03-26T00:00:56.112Z,74.19
2023-03-26T00:01:56.185Z,74.49
2023-03-26T00:02:56.262Z,74.70
2023-03-26T00:03:56.340Z,74.80
2023-03-26T00:04:56.417Z,75.01
2023-03-26T00:05:56.691Z,75.11
2023-03-26T00:06:56.585Z,75.32
2023-03-26T00:07:56.646Z,75.52
2023-03-26T00:08:56.728Z,75.52
2023-03-26T00:09:56.808Z,75.62
2023-03-26T00:10:56.924Z,75.52
2023-03-26T00:11:56.987Z,75.73
2023-03-26T00:12:57.079Z,75.73
2023-03-26T00:13:57.159Z,75.93
2023-03-26T00:14:57.250Z,76.14
2023-03-26T00:15:57.334Z,76.04
2023-03-26T00:16:57.483Z,76.14
2023-03-26T00:17:57.520Z,76.24
2023-03-26T00:18:57.709Z,76.55
2023-03-26T00:19:57.689Z,76.34
2023-03-26T00:20:57.753Z,76.34
2023-03-26T00:21:57.877Z,76.45
2023-03-26T00:22:57.910Z,76.34
2023-03-26T00:23:57.992Z,76.45
2023-03-26T00:24:58.100Z,76.45
2023-03-26T00:25:58.210Z,76.55
2023-03-26T00:26:58.260Z,76.45
2023-03-26T00:27:58.359Z,76.55
2023-03-26T00:28:58.476Z,76.65
2023-03-26T00:29:58.533Z,76.51
2023-03-26T00:30:58.654Z,76.51
2023-03-26T00:31:58.689Z,76.41
2023-03-26T00:32:58.817Z,76.51
2023-03-26T00:33:58.859Z,76.51
2023-03-26T00:34:58.938Z,76.62
2023-03-26T00:35:59.253Z,76.62
2023-03-26T00:36:59.093Z,76.62
2023-03-26T00:37:59.147Z,76.62
2023-03-26T00:38:59.229Z,76.41
2023-03-26T00:40:00.823Z,76.51
2023-03-26T00:40:59.387Z,76.41
2023-03-26T00:41:59.439Z,76.41
2023-03-26T00:42:59.536Z,76.37
2023-03-26T00:43:59.595Z,76.27
2023-03-26T00:44:59.707Z,76.27
2023-03-26T00:45:59.855Z,76.37
2023-03-26T00:46:59.863Z,76.37
2023-03-26T00:47:59.971Z,76.37
2023-03-26T00:49:00.133Z,76.27
2023-03-26T00:50:00.083Z,76.27
2023-03-26T00:51:00.175Z,76.51
2023-03-26T00:52:00.237Z,76.51
2023-03-26T00:53:00.345Z,76.51
2023-03-26T00:54:00.434Z,76.72
2023-03-26T00:55:00.514Z,76.62
2023-03-26T00:56:00.686Z,76.72
2023-03-26T00:57:00.734Z,76.72
2023-03-26T00:58:00.750Z,76.92
2023-03-26T00:59:00.826Z,77.13
2023-03-26T01:00:00.891Z,77.03
2023-03-26T01:01:01.019Z,77.13
2023-03-26T01:02:01.108Z,77.17
2023-03-26T01:03:01.232Z,77.47
2023-03-26T01:04:08.909Z,77.58
2023-03-26T01:05:01.316Z,77.78
2023-03-26T01:06:01.371Z,77.68
2023-03-26T01:07:01.476Z,77.68
2023-03-26T01:08:01.540Z,77.78
2023-03-26T01:09:01.646Z,77.98
2023-03-26T01:10:01.719Z,77.98
2023-03-26T01:11:01.832Z,77.88
2023-03-26T01:12:01.905Z,77.92
2023-03-26T01:13:01.991Z,77.92
2023-03-26T01:14:02.040Z,77.92
2023-03-26T01:15:02.154Z,78.23
2023-03-26T01:16:02.295Z,78.53
2023-03-26T01:17:02.318Z,78.64
2023-03-26T01:18:02.383Z,78.64
2023-03-26T01:19:02.454Z,78.74
2023-03-26T01:20:02.531Z,78.74
2023-03-26T01:21:02.624Z,78.74
2023-03-26T01:22:02.700Z,78.74
2023-03-26T01:23:02.788Z,78.88
2023-03-26T01:24:02.861Z,78.88
2023-03-26T01:25:02.944Z,79.08
2023-03-26T01:26:03.033Z,78.98
2023-03-26T01:27:03.126Z,79.08
2023-03-26T01:28:03.179Z,79.19
2023-03-26T01:29:03.250Z,79.39
2023-03-26T01:30:03.325Z,79.49
2023-03-26T01:31:03.401Z,79.60
2023-03-26T01:32:03.438Z,79.80
2023-03-26T01:33:03.637Z,79.80
2023-03-26T01:34:03.582Z,80.11
2023-03-26T01:35:03.650Z,80.15
2023-03-26T01:36:03.785Z,80.25
2023-03-26T01:37:03.843Z,80.46
2023-03-26T01:38:03.908Z,80.56
2023-03-26T01:39:03.988Z,80.66
2023-03-26T01:40:04.055Z,80.66
2023-03-26T01:41:04.172Z,80.77
2023-03-26T01:42:04.198Z,80.87
2023-03-26T01:43:04.279Z,80.87
2023-03-26T01:44:04.344Z,80.77
2023-03-26T01:45:04.420Z,81.18
2023-03-26T01:46:04.501Z,81.18
2023-03-26T01:47:04.573Z,81.18
2023-03-26T01:48:04.645Z,81.18
2023-03-26T01:49:04.711Z,81.18
2023-03-26T01:50:04.770Z,81.28
2023-03-26T01:51:04.880Z,81.59
2023-03-26T01:52:04.939Z,81.38
2023-03-26T01:53:05.016Z,81.28
2023-03-26T01:54:05.104Z,81.28
2023-03-26T01:55:05.184Z,81.28
2023-03-26T01:56:05.261Z,81.38
2023-03-26T01:57:05.378Z,81.28
2023-03-26T01:58:05.387Z,81.18
2023-03-26T01:59:05.487Z,81.28
2023-03-26T02:00:05.561Z,81.48
2023-03-26T02:01:05.655Z,81.38
2023-03-26T02:02:05.793Z,81.38
2023-03-26T02:03:05.909Z,81.45
2023-03-26T02:04:05.876Z,81.59
2023-03-26T02:05:05.956Z,81.59
2023-03-26T02:06:06.037Z,81.55
2023-03-26T02:07:06.116Z,81.45
2023-03-26T02:08:06.183Z,81.45
2023-03-26T02:09:06.274Z,81.45
2023-03-26T02:10:06.358Z,81.45
2023-03-26T02:11:06.462Z,81.45
2023-03-26T02:12:06.518Z,81.45
2023-03-26T02:13:06.615Z,81.34
2023-03-26T02:14:06.659Z,81.24
2023-03-26T02:15:06.740Z,81.24
2023-03-26T02:16:06.865Z,81.24
2023-03-26T02:17:06.904Z,81.14
2023-03-26T02:18:06.964Z,81.24
2023-03-26T02:19:07.047Z,81.14
2023-03-26T02:20:07.106Z,80.93
2023-03-26T02:21:07.234Z,80.79
2023-03-26T02:22:07.280Z,80.38
2023-03-26T02:23:07.379Z,79.97
2023-03-26T02:24:07.435Z,79.66
2023-03-26T02:25:07.527Z,79.77
2023-03-26T02:26:07.607Z,79.66
2023-03-26T02:27:07.762Z,79.42
2023-03-26T02:28:07.766Z,79.32
2023-03-26T02:29:07.876Z,79.22
2023-03-26T02:30:07.961Z,79.11
2023-03-26T02:31:08.023Z,79.01
2023-03-26T02:32:08.085Z,79.01
2023-03-26T02:33:08.166Z,78.81
2023-03-26T02:34:08.233Z,78.81
2023-03-26T02:35:08.386Z,78.60
2023-03-26T02:36:08.728Z,78.50
2023-03-26T02:37:08.481Z,78.19
2023-03-26T02:38:08.543Z,78.09
2023-03-26T02:39:08.622Z,77.98
2023-03-26T02:40:08.686Z,77.98
2023-03-26T02:41:08.781Z,78.05
2023-03-26T02:42:08.849Z,77.88
2023-03-26T02:43:08.977Z,78.16
2023-03-26T02:44:09.027Z,78.09
2023-03-26T02:45:09.129Z,78.16
2023-03-26T02:46:09.296Z,78.16
2023-03-26T02:47:09.335Z,78.05
2023-03-26T02:48:09.411Z,78.05
2023-03-26T02:49:09.514Z,78.25
2023-03-26T02:50:09.577Z,78.25
2023-03-26T02:51:09.702Z,78.05
2023-03-26T02:52:09.736Z,78.05
2023-03-26T02:53:09.799Z,78.05
2023-03-26T02:54:09.902Z,78.05
2023-03-26T02:55:09.948Z,78.05
2023-03-26T02:56:10.058Z,78.16
2023-03-26T02:57:10.152Z,78.05
2023-03-26T02:58:10.193Z,78.05
2023-03-26T02:59:10.242Z,77.95
2023-03-26T03:00:10.349Z,78.05
2023-03-26T03:01:10.449Z,77.95
2023-03-26T03:02:10.539Z,77.95
2023-03-26T03:03:10.594Z,77.64
2023-03-26T03:04:10.672Z,77.54
2023-03-26T03:05:10.778Z,77.64
2023-03-26T03:06:10.882Z,77.54
2023-03-26T03:07:10.944Z,77.64
2023-03-26T03:08:11.019Z,77.64
2023-03-26T03:09:11.125Z,77.74
2023-03-26T03:10:11.183Z,77.74
2023-03-26T03:11:11.300Z,77.74
2023-03-26T03:12:11.360Z,77.74
2023-03-26T03:13:11.453Z,77.84
2023-03-26T03:14:11.505Z,77.74
2023-03-26T03:15:11.608Z,77.74
2023-03-26T03:16:11.734Z,77.74
2023-03-26T03:17:11.772Z,77.64
2023-03-26T03:18:11.826Z,77.84
2023-03-26T03:19:11.925Z,77.64
2023-03-26T03:20:12.013Z,77.84
2023-03-26T03:21:12.124Z,77.95
2023-03-26T03:22:12.178Z,78.25
2023-03-26T03:23:12.285Z,78.05
2023-03-26T03:24:12.364Z,78.32
2023-03-26T03:25:12.456Z,78.22
2023-03-26T03:26:12.558Z,78.16
2023-03-26T03:27:12.622Z,78.25
2023-03-26T03:28:12.711Z,78.77
2023-03-26T03:29:12.810Z,78.56
2023-03-26T03:30:12.889Z,78.46
2023-03-26T03:31:13.046Z,78.67
2023-03-26T03:32:13.061Z,78.36
2023-03-26T03:33:13.158Z,78.87
2023-03-26T03:34:13.220Z,79.18
2023-03-26T03:35:13.308Z,79.59
2023-03-26T03:36:20.157Z,80.10
2023-03-26T03:37:13.458Z,80.31
2023-03-26T03:38:13.528Z,80.41
2023-03-26T03:39:13.655Z,80.51
2023-03-26T03:40:13.692Z,80.92
2023-03-26T03:41:13.812Z,81.23
2023-03-26T03:42:13.865Z,81.34
2023-03-26T03:43:13.967Z,81.99
2023-03-26T03:44:14.039Z,82.60
2023-03-26T03:45:14.108Z,83.01
2023-03-26T03:46:14.239Z,83.67
2023-03-26T03:47:14.293Z,83.98
2023-03-26T03:48:14.363Z,84.59
2023-03-26T03:49:14.432Z,85.04
2023-03-26T03:50:14.507Z,85.66
2023-03-26T03:51:14.641Z,85.86
2023-03-26T03:52:14.666Z,85.97
2023-03-26T03:53:14.771Z,86.32
2023-03-26T03:54:14.850Z,86.62
2023-03-26T03:55:14.936Z,86.83
2023-03-26T03:56:15.031Z,87.24
2023-03-26T03:57:15.114Z,87.75
2023-03-26T03:58:15.182Z,88.17
2023-03-26T03:59:15.260Z,88.47
2023-03-26T04:00:15.341Z,88.12
2023-03-26T04:01:15.457Z,87.45
2023-03-26T04:02:15.511Z,86.93
2023-03-26T04:03:15.902Z,86.83
2023-03-26T04:04:15.699Z,86.72
2023-03-26T04:05:15.706Z,86.72
2023-03-26T04:06:15.774Z,86.52
2023-03-26T04:07:15.883Z,86.62
2023-03-26T04:08:15.944Z,86.83
2023-03-26T04:09:16.019Z,86.52
2023-03-26T04:10:16.161Z,87.07
2023-03-26T04:11:16.171Z,87.38
2023-03-26T04:12:16.228Z,87.18
2023-03-26T04:13:16.342Z,87.28
2023-03-26T04:14:16.385Z,87.49
2023-03-26T04:15:16.484Z,87.59
2023-03-26T04:16:16.670Z,87.59
2023-03-26T04:17:16.682Z,87.28
2023-03-26T04:18:16.727Z,87.28
2023-03-26T04:19:16.811Z,87.28
2023-03-26T04:20:16.882Z,87.55
2023-03-26T04:21:16.986Z,87.85
2023-03-26T04:22:17.063Z,87.55
2023-03-26T04:23:17.131Z,87.04
2023-03-26T04:24:17.201Z,87.18
2023-03-26T04:25:17.274Z,87.28
2023-03-26T04:26:17.343Z,87.49
2023-03-26T04:27:17.434Z,87.59
2023-03-26T04:28:17.509Z,87.49
2023-03-26T04:29:17.596Z,87.38
2023-03-26T04:30:17.652Z,87.59
2023-03-26T04:31:17.796Z,87.28
2023-03-26T04:32:17.851Z,87.49
2023-03-26T04:33:17.909Z,87.59
2023-03-26T04:34:17.990Z,87.59
2023-03-26T04:35:18.082Z,87.28
2023-03-26T04:36:18.140Z,87.38
2023-03-26T04:37:18.226Z,87.28
2023-03-26T04:38:18.325Z,87.38
2023-03-26T04:39:18.396Z,87.59
2023-03-26T04:40:18.464Z,87.90
2023-03-26T04:41:18.541Z,88.31
2023-03-26T04:42:18.623Z,87.90
2023-03-26T04:43:18.700Z,87.55
2023-03-26T04:44:18.770Z,87.04
2023-03-26T04:45:18.849Z,86.58
2023-03-26T04:46:18.937Z,86.38
2023-03-26T04:47:19.019Z,86.52
2023-03-26T04:48:19.058Z,86.83
2023-03-26T04:49:19.150Z,87.24
2023-03-26T04:50:19.237Z,87.55
2023-03-26T04:51:19.345Z,88.17
2023-03-26T04:52:19.455Z,88.37
2023-03-26T04:53:19.504Z,88.37
2023-03-26T04:54:19.578Z,88.78
2023-03-26T04:55:19.660Z,88.89
2023-03-26T04:56:19.724Z,88.78
2023-03-26T04:57:19.821Z,88.98
2023-03-26T04:58:19.885Z,89.09
2023-03-26T04:59:19.967Z,89.09
2023-03-26T05:00:20.056Z,89.29
2023-03-26T05:01:20.221Z,89.46
2023-03-26T05:02:20.267Z,89.29
2023-03-26T05:03:20.323Z,89.19
2023-03-26T05:04:20.442Z,89.19
2023-03-26T05:05:20.490Z,89.50
2023-03-26T05:06:20.555Z,89.81
2023-03-26T05:07:20.665Z,90.12
2023-03-26T05:08:20.716Z,90.01
2023-03-26T05:09:20.836Z,90.32
2023-03-26T05:10:20.873Z,90.53
2023-03-26T05:11:20.956Z,90.94
2023-03-26T05:12:21.052Z,91.04
2023-03-26T05:13:21.122Z,91.10
2023-03-26T05:14:21.190Z,90.63
2023-03-26T05:15:21.276Z,90.22
2023-03-26T05:16:21.363Z,90.32
2023-03-26T05:17:21.489Z,90.42
2023-03-26T05:18:21.519Z,90.73
2023-03-26T05:19:21.590Z,91.14
2023-03-26T05:20:21.677Z,91.35
2023-03-26T05:21:21.747Z,91.45
2023-03-26T05:22:21.823Z,91.04
2023-03-26T05:23:21.879Z,90.83
2023-03-26T05:24:21.948Z,90.57
2023-03-26T05:25:22.045Z,90.01
2023-03-26T05:26:22.113Z,89.95
2023-03-26T05:27:22.197Z,90.16
2023-03-26T05:28:22.259Z,90.42
2023-03-26T05:29:22.340Z,90.53
2023-03-26T05:30:22.439Z,90.78
2023-03-26T05:31:22.512Z,90.88
2023-03-26T05:32:22.597Z,91.14
2023-03-26T05:33:22.777Z,91.35
2023-03-26T05:34:22.750Z,91.45
2023-03-26T05:35:22.893Z,91.45
2023-03-26T05:36:22.909Z,91.55
2023-03-26T05:37:23.029Z,91.66
2023-03-26T05:38:23.088Z,91.55
2023-03-26T05:39:23.162Z,91.55
2023-03-26T05:40:23.231Z,91.45
2023-03-26T05:41:23.301Z,90.94
2023-03-26T05:42:23.427Z,90.94
2023-03-26T05:43:23.474Z,91.04
2023-03-26T05:44:23.550Z,91.35
2023-03-26T05:45:23.621Z,91.66
2023-03-26T05:46:23.748Z,91.86
2023-03-26T05:47:23.839Z,91.86
2023-03-26T05:48:23.874Z,91.97
2023-03-26T05:49:23.959Z,92.07
2023-03-26T05:50:24.034Z,92.27
2023-03-26T05:51:24.110Z,92.48
2023-03-26T05:52:24.202Z,92.58
2023-03-26T05:53:24.247Z,92.69
2023-03-26T05:54:24.343Z,92.79
2023-03-26T05:55:24.443Z,92.99
2023-03-26T05:56:24.499Z,92.89
2023-03-26T05:57:24.626Z,92.79
2023-03-26T05:58:24.686Z,92.69
2023-03-26T05:59:24.784Z,92.79
2023-03-26T06:00:24.862Z,92.89
2023-03-26T06:01:24.961Z,92.79
2023-03-26T06:02:25.106Z,92.79
2023-03-26T06:03:25.257Z,92.89
2023-03-26T06:04:25.234Z,92.89
2023-03-26T06:05:25.266Z,92.99
2023-03-26T06:06:25.342Z,93.04
2023-03-26T06:07:25.430Z,93.24
2023-03-26T06:08:25.477Z,93.20
2023-03-26T06:09:25.539Z,93.24
2023-03-26T06:10:25.602Z,93.51
2023-03-26T06:11:25.706Z,93.71
2023-03-26T06:12:25.818Z,93.92
2023-03-26T06:13:25.884Z,94.02
2023-03-26T06:14:25.948Z,94.02
2023-03-26T06:15:26.038Z,93.92
2023-03-26T06:16:27.981Z,93.92
2023-03-26T06:17:26.262Z,93.82
2023-03-26T06:18:26.328Z,93.51
2023-03-26T06:19:26.387Z,93.40
2023-03-26T06:20:26.457Z,93.40
2023-03-26T06:21:26.566Z,93.51
2023-03-26T06:22:26.640Z,93.61
2023-03-26T06:23:26.773Z,93.61
2023-03-26T06:24:26.815Z,93.40
2023-03-26T06:25:26.909Z,93.30
2023-03-26T06:26:26.970Z,93.30
2023-03-26T06:27:27.097Z,93.30
2023-03-26T06:28:27.149Z,93.30
2023-03-26T06:29:27.249Z,93.40
2023-03-26T06:30:27.333Z,93.71
2023-03-26T06:31:27.460Z,94.07
2023-03-26T06:32:27.578Z,94.48
2023-03-26T06:33:27.606Z,94.99
2023-03-26T06:34:27.668Z,95.55
2023-03-26T06:35:27.762Z,95.96
2023-03-26T06:36:27.822Z,96.47
2023-03-26T06:37:27.932Z,96.58
2023-03-26T06:38:27.998Z,96.78
2023-03-26T06:39:28.081Z,96.84
2023-03-26T06:40:28.143Z,96.84
2023-03-26T06:41:28.221Z,96.53
2023-03-26T06:43:06.413Z,96.47
2023-03-26T06:43:28.368Z,96.27
2023-03-26T06:44:28.443Z,96.37
2023-03-26T06:45:28.516Z,96.37
2023-03-26T06:46:28.640Z,96.89
2023-03-26T06:47:28.842Z,96.78
2023-03-26T06:48:28.789Z,96.99
2023-03-26T06:49:28.868Z,96.99
2023-03-26T06:50:28.932Z,97.19
2023-03-26T06:51:29.028Z,96.99
2023-03-26T06:52:29.146Z,97.09
2023-03-26T06:53:29.212Z,97.09
2023-03-26T06:54:29.278Z,97.09
2023-03-26T06:55:29.392Z,96.89
2023-03-26T06:56:29.486Z,96.99
2023-03-26T06:57:29.630Z,97.30
2023-03-26T06:58:29.639Z,97.30
2023-03-26T06:59:29.712Z,97.40
2023-03-26T07:00:29.813Z,97.50
2023-03-26T07:01:29.973Z,97.50
2023-03-26T07:02:30.013Z,97.40
2023-03-26T07:03:30.065Z,97.30
2023-03-26T07:04:30.171Z,97.50
2023-03-26T07:05:30.243Z,97.40
2023-03-26T07:06:30.300Z,97.19
2023-03-26T07:07:30.413Z,97.09
2023-03-26T07:08:30.444Z,97.30
2023-03-26T07:09:30.521Z,97.40
2023-03-26T07:10:30.594Z,97.61
2023-03-26T07:11:30.675Z,97.40
2023-03-26T07:12:30.757Z,97.40
2023-03-26T07:13:30.840Z,97.30
2023-03-26T07:14:30.928Z,97.30
2023-03-26T07:15:31.021Z,97.19
2023-03-26T07:16:31.120Z,97.09
2023-03-26T07:17:31.221Z,97.09
2023-03-26T07:18:31.246Z,97.09
2023-03-26T07:19:31.372Z,96.99
2023-03-26T07:20:31.439Z,96.94
2023-03-26T07:21:31.695Z,97.05
2023-03-26T07:22:31.667Z,97.15
2023-03-26T07:23:31.718Z,97.05
2023-03-26T07:24:31.806Z,96.84
2023-03-26T07:25:31.891Z,96.84
2023-03-26T07:26:31.996Z,96.73
2023-03-26T07:27:32.132Z,96.64
2023-03-26T07:28:32.182Z,96.64
2023-03-26T07:29:32.273Z,96.84
2023-03-26T07:30:32.357Z,97.05
2023-03-26T07:31:32.458Z,96.94
2023-03-26T07:32:32.577Z,96.73
2023-03-26T07:33:32.600Z,96.84
2023-03-26T07:34:32.716Z,96.53
2023-03-26T07:35:32.813Z,96.68
2023-03-26T07:36:32.878Z,96.78
2023-03-26T07:37:32.973Z,96.89
2023-03-26T07:38:33.019Z,97.09
2023-03-26T07:39:33.090Z,96.99
2023-03-26T07:40:33.181Z,97.09
2023-03-26T07:41:33.251Z,97.19
2023-03-26T07:42:33.368Z,97.19
2023-03-26T07:43:33.444Z,97.30
2023-03-26T07:44:35.653Z,97.30
2023-03-26T07:45:33.650Z,97.50
2023-03-26T07:46:33.677Z,97.61
2023-03-26T07:47:33.795Z,97.71
2023-03-26T07:48:33.863Z,97.75
2023-03-26T07:49:33.937Z,97.91
2023-03-26T07:50:34.016Z,98.02
2023-03-26T07:51:34.086Z,97.91
2023-03-26T07:52:34.226Z,97.81
2023-03-26T07:53:34.269Z,97.86
2023-03-26T07:54:34.382Z,98.06
2023-03-26T07:55:34.451Z,98.16
2023-03-26T07:56:34.587Z,98.16
2023-03-26T07:57:34.642Z,98.16
2023-03-26T07:58:34.637Z,98.06
2023-03-26T07:59:34.717Z,97.81
2023-03-26T08:00:34.821Z,97.65
2023-03-26T08:01:34.885Z,97.65
2023-03-26T08:02:35.049Z,97.75
2023-03-26T08:03:35.184Z,97.75
2023-03-26T08:04:35.234Z,97.55
2023-03-26T08:05:35.206Z,97.65
2023-03-26T08:06:35.292Z,97.65
2023-03-26T08:07:35.374Z,97.65
2023-03-26T08:08:35.468Z,97.75
2023-03-26T08:09:35.507Z,97.71
2023-03-26T08:10:35.593Z,97.65
2023-03-26T08:11:35.667Z,97.65
2023-03-26T08:12:35.747Z,97.65
2023-03-26T08:13:35.840Z,97.75
2023-03-26T08:14:35.896Z,97.86
2023-03-26T08:15:36.029Z,97.86
2023-03-26T08:16:36.042Z,98.06
2023-03-26T08:17:36.189Z,98.11
2023-03-26T08:18:36.192Z,98.21
2023-03-26T08:19:36.272Z,98.16
2023-03-26T08:20:36.351Z,98.11
2023-03-26T08:21:36.413Z,98.16
2023-03-26T08:22:36.507Z,98.27
2023-03-26T08:23:36.576Z,98.16
2023-03-26T08:24:36.660Z,98.27
2023-03-26T08:25:38.086Z,98.27
2023-03-26T08:26:36.813Z,98.27
2023-03-26T08:27:36.923Z,98.47
2023-03-26T08:28:36.993Z,98.37
2023-03-26T08:29:37.071Z,98.58
2023-03-26T08:30:37.137Z,98.68
2023-03-26T08:31:37.247Z,98.99
2023-03-26T08:32:37.358Z,98.99
2023-03-26T08:33:38.466Z,99.09
2023-03-26T08:34:37.484Z,99.09
2023-03-26T08:35:37.602Z,99.19
2023-03-26T08:36:37.641Z,99.09
2023-03-26T08:37:37.718Z,98.68
2023-03-26T08:38:37.792Z,98.52
2023-03-26T08:39:37.872Z,98.72
2023-03-26T08:40:37.962Z,98.88
2023-03-26T08:41:38.036Z,98.79
2023-03-26T08:42:38.180Z,98.68
2023-03-26T08:43:38.181Z,98.68
2023-03-26T08:44:38.291Z,98.58
2023-03-26T08:45:38.359Z,98.37
2023-03-26T08:46:38.506Z,98.16
2023-03-26T08:47:38.616Z,98.06
2023-03-26T08:48:38.594Z,97.91
2023-03-26T08:49:38.682Z,97.50
2023-03-26T08:50:38.758Z,97.40
2023-03-26T08:51:38.830Z,97.40
2023-03-26T08:52:38.940Z,97.19
2023-03-26T08:53:38.973Z,96.68
2023-03-26T08:54:39.086Z,96.52
2023-03-26T08:55:39.160Z,96.52
2023-03-26T08:56:39.274Z,96.83
2023-03-26T08:57:39.320Z,96.93
2023-03-26T08:58:39.399Z,96.83
2023-03-26T08:59:39.476Z,97.03
2023-03-26T09:00:39.589Z,97.24
2023-03-26T09:01:39.669Z,97.39
2023-03-26T09:02:39.795Z,97.80
2023-03-26T09:03:39.822Z,97.49
2023-03-26T09:04:39.884Z,97.49
2023-03-26T09:05:39.948Z,97.69
2023-03-26T09:06:40.033Z,98.00
2023-03-26T09:07:40.133Z,98.00
2023-03-26T09:08:54.080Z,98.21
2023-03-26T09:09:40.254Z,98.32
2023-03-26T09:10:40.338Z,98.52
2023-03-26T09:11:40.418Z,98.72
2023-03-26T09:12:40.525Z,98.62
2023-03-26T09:13:40.562Z,98.62
2023-03-26T09:14:40.658Z,98.52
2023-03-26T09:15:40.712Z,98.47
2023-03-26T09:16:40.834Z,98.47
2023-03-26T09:17:40.979Z,98.58
2023-03-26T09:18:40.991Z,98.47
2023-03-26T09:19:41.070Z,98.68
2023-03-26T09:20:41.158Z,98.68
2023-03-26T09:21:41.230Z,98.63
2023-03-26T09:22:41.362Z,98.63
2023-03-26T09:23:41.408Z,98.43
2023-03-26T09:24:41.488Z,98.18
2023-03-26T09:25:41.562Z,98.02
2023-03-26T09:26:41.660Z,97.97
2023-03-26T09:27:41.741Z,98.07
2023-03-26T09:28:41.835Z,97.77
2023-03-26T09:29:41.896Z,97.87
2023-03-26T09:30:41.979Z,98.18
2023-03-26T09:31:42.070Z,98.33
2023-03-26T09:32:42.229Z,97.78
2023-03-26T09:33:42.222Z,97.20
2023-03-26T09:34:42.311Z,96.75
2023-03-26T09:35:42.442Z,96.28
2023-03-26T09:36:42.477Z,96.55
2023-03-26T09:37:56.994Z,96.70
2023-03-26T09:38:42.664Z,96.10
2023-03-26T09:39:42.731Z,94.58
2023-03-26T09:40:42.818Z,91.64
2023-03-26T09:41:42.900Z,88.18
2023-03-26T09:42:43.019Z,86.10
2023-03-26T09:43:43.083Z,85.89
2023-03-26T09:44:43.137Z,86.76
2023-03-26T09:45:43.308Z,87.88
2023-03-26T09:46:44.969Z,85.61
2023-03-26T09:47:43.453Z,85.10
2023-03-26T09:48:43.491Z,85.85
2023-03-26T09:49:43.565Z,85.72
2023-03-26T09:50:43.661Z,86.65
2023-03-26T09:51:43.722Z,87.51
2023-03-26T09:52:43.859Z,88.94
2023-03-26T09:53:43.910Z,89.97
2023-03-26T09:54:44.001Z,89.36
2023-03-26T09:55:44.059Z,89.50
2023-03-26T09:56:44.162Z,90.32
2023-03-26T09:57:44.242Z,90.01
2023-03-26T09:58:44.312Z,90.05
2023-03-26T09:59:44.369Z,89.64
2023-03-26T10:00:44.491Z,89.84
2023-03-26T10:01:44.536Z,89.84
2023-03-26T10:02:46.772Z,89.33
2023-03-26T10:03:44.708Z,89.37
2023-03-26T10:04:44.847Z,90.30
2023-03-26T10:05:44.880Z,90.81
2023-03-26T10:06:44.966Z,90.91
2023-03-26T10:07:45.192Z,91.22
2023-03-26T10:08:45.129Z,91.33
2023-03-26T10:09:45.184Z,91.99
2023-03-26T10:10:45.260Z,92.29
2023-03-26T10:11:45.333Z,92.70
2023-03-26T10:12:45.606Z,93.21
2023-03-26T10:13:45.505Z,93.01
2023-03-26T10:14:45.597Z,93.63
2023-03-26T10:15:45.657Z,94.34
2023-03-26T10:16:45.761Z,94.76
2023-03-26T10:17:45.918Z,94.24
2023-03-26T10:18:45.936Z,94.08
2023-03-26T10:19:45.987Z,94.39
2023-03-26T10:20:46.075Z,94.59
2023-03-26T10:21:46.150Z,95.01
2023-03-26T10:22:46.257Z,95.42
2023-03-26T10:23:46.317Z,96.03
2023-03-26T10:24:46.407Z,95.93
2023-03-26T10:25:46.496Z,95.83
2023-03-26T10:27:09.912Z,95.89
2023-03-26T10:27:46.695Z,95.57
2023-03-26T10:28:46.744Z,95.78
2023-03-26T10:29:46.827Z,96.19
2023-03-26T10:30:46.964Z,96.40
2023-03-26T10:31:46.977Z,96.40
2023-03-26T10:32:47.111Z,96.50
2023-03-26T10:33:47.118Z,96.30
2023-03-26T10:34:47.196Z,96.19
2023-03-26T10:35:47.293Z,95.78
2023-03-26T10:36:47.346Z,95.68
2023-03-26T10:37:47.420Z,95.68
2023-03-26T10:38:47.484Z,96.19
2023-03-26T10:39:47.552Z,96.50
2023-03-26T10:40:47.644Z,96.81
2023-03-26T10:41:47.723Z,97.02
2023-03-26T10:42:47.809Z,96.91
2023-03-26T10:43:54.845Z,96.87
2023-03-26T10:44:47.965Z,96.97
2023-03-26T10:45:48.084Z,96.66
2023-03-26T10:46:48.125Z,96.66
2023-03-26T10:47:48.260Z,96.56
2023-03-26T10:48:48.290Z,96.56
2023-03-26T10:49:48.359Z,96.15
2023-03-26T10:50:48.443Z,96.09
2023-03-26T10:51:48.536Z,96.35
2023-03-26T10:52:48.625Z,96.15
2023-03-26T10:53:48.663Z,95.94
2023-03-26T10:54:48.751Z,96.66
2023-03-26T10:55:48.821Z,97.33
2023-03-26T10:56:48.935Z,97.85
2023-03-26T10:57:49.023Z,97.44
2023-03-26T10:58:49.864Z,97.03
2023-03-26T10:59:49.149Z,96.62
2023-03-26T11:00:49.245Z,96.41
2023-03-26T11:01:49.348Z,96.20
2023-03-26T11:02:49.441Z,96.10
2023-03-26T11:03:49.462Z,96.37
2023-03-26T11:04:49.566Z,96.16
2023-03-26T11:05:49.687Z,96.06
2023-03-26T11:06:49.715Z,95.75
2023-03-26T11:07:49.813Z,95.34
2023-03-26T11:08:49.886Z,95.44
2023-03-26T11:09:49.956Z,95.54
2023-03-26T11:10:50.044Z,95.14
2023-03-26T11:11:50.096Z,93.74
2023-03-26T11:12:50.205Z,93.59
2023-03-26T11:13:50.236Z,94.05
2023-03-26T11:14:50.325Z,92.93
2023-03-26T11:15:50.461Z,92.51
2023-03-26T11:16:50.501Z,92.47
2023-03-26T11:17:50.609Z,92.98
2023-03-26T11:18:50.650Z,92.78
2023-03-26T11:19:53.021Z,92.47
2023-03-26T11:20:50.829Z,91.86
2023-03-26T11:21:50.895Z,91.75
2023-03-26T11:22:51.031Z,91.96
2023-03-26T11:24:05.244Z,92.88
2023-03-26T11:24:51.156Z,93.25
2023-03-26T11:25:51.241Z,93.25
2023-03-26T11:26:51.344Z,93.55
2023-03-26T11:27:51.408Z,93.86
2023-03-26T11:29:04.166Z,93.76
2023-03-26T11:29:51.561Z,93.66
2023-03-26T11:30:51.668Z,92.94
2023-03-26T11:31:51.724Z,92.74
2023-03-26T11:32:52.121Z,92.12
2023-03-26T11:33:52.758Z,91.82
2023-03-26T11:34:51.971Z,90.89
2023-03-26T11:35:52.061Z,88.02
2023-03-26T11:36:52.114Z,87.82
2023-03-26T11:37:52.222Z,87.92
2023-03-26T11:38:52.295Z,88.33
2023-03-26T11:39:54.397Z,87.85
2023-03-26T11:40:52.562Z,86.93
2023-03-26T11:41:52.571Z,87.14
2023-03-26T11:42:52.628Z,87.24
2023-03-26T11:43:52.702Z,87.24
2023-03-26T11:44:52.778Z,87.14
2023-03-26T11:45:52.863Z,86.83
2023-03-26T11:46:52.995Z,87.34
2023-03-26T11:47:53.069Z,87.85
2023-03-26T11:48:53.092Z,88.27
2023-03-26T11:49:53.190Z,88.47
2023-03-26T11:50:53.465Z,87.76
2023-03-26T11:51:53.361Z,88.17
2023-03-26T11:52:53.453Z,88.47
2023-03-26T11:53:53.531Z,88.78
2023-03-26T11:54:53.601Z,88.41
2023-03-26T11:55:53.675Z,88.10
2023-03-26T11:57:05.148Z,88.51
2023-03-26T11:57:53.867Z,88.21
2023-03-26T11:58:53.915Z,88.31
2023-03-26T11:59:57.518Z,87.49
2023-03-26T12:00:54.255Z,86.66
2023-03-26T12:01:54.132Z,86.36
2023-03-26T12:02:54.229Z,86.77
2023-03-26T12:03:54.259Z,86.98
2023-03-26T12:04:54.338Z,87.38
2023-03-26T12:05:54.396Z,87.59
2023-03-26T12:06:54.457Z,87.70
2023-03-26T12:07:54.583Z,87.28
2023-03-26T12:08:54.648Z,88.10
2023-03-26T12:09:54.700Z,88.57
2023-03-26T12:10:54.847Z,88.37
2023-03-26T12:11:54.845Z,87.55
2023-03-26T12:12:54.920Z,87.85
2023-03-26T12:13:55.004Z,87.92
2023-03-26T12:14:55.095Z,88.23
2023-03-26T12:15:55.207Z,87.92
2023-03-26T12:16:57.086Z,88.43
2023-03-26T12:17:55.433Z,88.12
2023-03-26T12:18:55.426Z,87.77
2023-03-26T12:19:55.527Z,87.77
2023-03-26T12:20:55.784Z,88.08
2023-03-26T12:21:55.691Z,87.77
2023-03-26T12:22:55.767Z,88.04
2023-03-26T12:23:55.829Z,87.53
2023-03-26T12:24:55.907Z,86.40
2023-03-26T12:25:55.992Z,85.89
2023-03-26T12:26:56.073Z,85.69
2023-03-26T12:27:56.169Z,86.51
2023-03-26T12:28:56.205Z,86.10
2023-03-26T12:29:56.286Z,85.79
2023-03-26T12:30:56.470Z,85.99
2023-03-26T12:31:56.451Z,86.10
2023-03-26T12:32:56.503Z,86.20
2023-03-26T12:33:58.067Z,85.89
2023-03-26T12:34:56.645Z,86.40
2023-03-26T12:35:56.799Z,85.58
2023-03-26T12:36:56.814Z,85.89
2023-03-26T12:37:56.941Z,86.30
2023-03-26T12:39:16.790Z,86.51
2023-03-26T12:40:17.049Z,86.10
2023-03-26T12:40:57.148Z,85.38
2023-03-26T12:44:44.672Z,85.58
2023-03-26T12:45:02.324Z,85.79
2023-03-26T12:45:07.772Z,86.04
2023-03-26T12:47:57.193Z,85.83
2023-03-26T12:48:07.174Z,86.20
2023-03-26T12:48:12.726Z,87.32
2023-03-26T12:49:12.760Z,87.63
2023-03-26T12:50:12.793Z,86.71
2023-03-26T12:51:12.844Z,86.91
2023-03-26T12:52:12.900Z,86.91
2023-03-26T12:53:12.987Z,87.02
2023-03-26T12:54:13.038Z,87.32
2023-03-26T12:55:13.159Z,87.70